createdAt,value
2022-12-07T00:01:09.870Z,19.25
2022-12-07T00:03:45.077Z,17.05
2022-12-07T00:06:18.263Z,19.30
2022-12-07T00:08:53.192Z,16.27
2022-12-07T00:11:25.462Z,15.38
2022-12-07T00:14:02.728Z,17.42
2022-12-07T00:16:35.952Z,17.00
2022-12-07T00:19:07.992Z,14.57
2022-12-07T00:21:40.119Z,12.48
2022-12-07T00:24:12.500Z,11.18
2022-12-07T00:26:44.994Z,11.52
2022-12-07T00:29:20.311Z,10.02
2022-12-07T00:31:52.347Z,9.35
2022-12-07T00:34:24.387Z,7.28
2022-12-07T00:36:56.246Z,6.80
2022-12-07T00:39:28.167Z,5.45
2022-12-07T00:42:00.143Z,4.80
2022-12-07T00:44:35.516Z,4.88
2022-12-07T00:47:07.414Z,4.43
2022-12-07T00:49:39.326Z,4.13
2022-12-07T00:52:11.301Z,3.53
2022-12-07T00:54:43.225Z,4.20
2022-12-07T00:57:15.256Z,3.38
2022-12-07T00:59:47.365Z,2.95
2022-12-07T01:02:19.345Z,2.90
2022-12-07T01:04:51.278Z,3.28
2022-12-07T01:07:23.660Z,4.10
2022-12-07T01:09:55.513Z,3.40
2022-12-07T01:12:27.456Z,3.92
2022-12-07T01:14:59.315Z,4.45
2022-12-07T01:17:31.277Z,6.22
2022-12-07T01:20:05.099Z,8.60
2022-12-07T01:22:41.497Z,9.00
2022-12-07T01:25:13.718Z,10.93
2022-12-07T01:27:45.597Z,11.02
2022-12-07T01:30:17.780Z,10.75
2022-12-07T01:32:49.912Z,11.07
2022-12-07T01:35:21.924Z,11.95
2022-12-07T01:37:53.811Z,12.48
2022-12-07T01:40:25.715Z,13.82
2022-12-07T01:42:57.546Z,12.45
2022-12-07T01:45:39.801Z,11.40
2022-12-07T01:48:15.862Z,15.23
2022-12-07T01:50:50.885Z,15.88
2022-12-07T01:53:25.559Z,12.40
2022-12-07T01:55:59.015Z,18.77
2022-12-07T01:58:31.585Z,16.23
2022-12-07T02:01:03.722Z,11.85
2022-12-07T02:03:42.309Z,12.27
2022-12-07T02:06:22.012Z,11.40
2022-12-07T02:08:54.495Z,11.30
2022-12-07T02:11:26.504Z,11.52
2022-12-07T02:13:59.640Z,10.77
2022-12-07T02:17:18.813Z,9.70
2022-12-07T02:19:50.653Z,9.75
2022-12-07T02:23:00.269Z,9.68
2022-12-07T02:25:56.197Z,11.50
2022-12-07T02:36:54.891Z,11.35
2022-12-07T02:39:47.149Z,10.50
2022-12-07T02:42:32.357Z,14.23
2022-12-07T02:45:06.960Z,12.23
2022-12-07T02:47:40.322Z,12.65
2022-12-07T02:50:12.940Z,13.27
2022-12-07T02:52:44.862Z,12.63
2022-12-07T02:55:20.024Z,11.93
2022-12-07T02:57:54.727Z,12.25
2022-12-07T03:00:26.709Z,12.68
2022-12-07T03:03:10.124Z,11.80
2022-12-07T03:05:49.866Z,12.20
2022-12-07T03:08:54.236Z,10.30
2022-12-07T03:11:35.368Z,9.65
2022-12-07T03:14:25.458Z,11.15
2022-12-07T03:17:13.678Z,8.75
2022-12-07T03:19:47.311Z,7.07
2022-12-07T03:23:14.243Z,6.18
2022-12-07T03:26:27.156Z,4.35
2022-12-07T03:33:07.431Z,3.08
2022-12-07T03:35:45.054Z,2.78
2022-12-07T03:38:37.614Z,2.60
2022-12-07T03:41:15.839Z,3.10
2022-12-07T03:43:48.015Z,5.93
2022-12-07T03:46:45.025Z,5.75
2022-12-07T03:49:34.869Z,6.30
2022-12-07T03:52:18.406Z,7.50
2022-12-07T03:55:20.201Z,8.98
2022-12-07T03:57:56.573Z,8.98
2022-12-07T04:00:28.947Z,9.00
2022-12-07T04:03:01.004Z,8.82
2022-12-07T04:05:33.193Z,10.27
2022-12-07T04:08:05.473Z,9.27
2022-12-07T04:10:37.675Z,9.32
2022-12-07T04:13:09.621Z,8.05
2022-12-07T04:15:41.550Z,9.90
2022-12-07T04:18:13.495Z,10.82
2022-12-07T04:20:46.453Z,8.73
2022-12-07T04:23:18.312Z,9.02
2022-12-07T04:25:50.203Z,9.60
2022-12-07T04:28:22.142Z,9.27
2022-12-07T04:30:54.056Z,8.93
2022-12-07T04:33:25.907Z,8.18
2022-12-07T04:35:57.990Z,8.35
2022-12-07T04:38:29.945Z,8.52
2022-12-07T04:41:07.018Z,7.30
2022-12-07T04:43:39.229Z,7.00
2022-12-07T04:46:11.734Z,5.10
2022-12-07T04:48:43.744Z,5.80
2022-12-07T04:51:20.456Z,4.93
2022-12-07T04:53:52.898Z,4.63
2022-12-07T04:56:25.404Z,4.03
2022-12-07T04:58:57.347Z,4.47
2022-12-07T05:01:29.418Z,3.92
2022-12-07T05:04:01.360Z,3.70
2022-12-07T05:06:33.450Z,3.90
2022-12-07T05:09:05.857Z,4.30
2022-12-07T05:11:40.585Z,4.90
2022-12-07T05:14:18.252Z,5.03
2022-12-07T05:16:51.874Z,5.53
2022-12-07T05:19:23.888Z,5.55
2022-12-07T05:21:56.056Z,5.47
2022-12-07T05:24:28.006Z,5.90
2022-12-07T05:26:59.894Z,5.60
2022-12-07T05:29:32.015Z,5.75
2022-12-07T05:32:04.249Z,6.30
2022-12-07T05:34:36.213Z,6.63
2022-12-07T05:37:08.127Z,6.22
2022-12-07T05:39:41.957Z,6.53
2022-12-07T05:42:13.929Z,6.03
2022-12-07T05:44:47.316Z,7.68
2022-12-07T05:47:19.461Z,6.63
2022-12-07T05:49:51.476Z,6.65
2022-12-07T05:52:23.775Z,6.22
2022-12-07T05:54:55.669Z,6.47
2022-12-07T05:57:27.605Z,7.10
2022-12-07T05:59:59.678Z,6.47
2022-12-07T06:02:32.030Z,5.68
2022-12-07T06:05:04.266Z,6.55
2022-12-07T06:07:36.161Z,6.60
2022-12-07T06:10:08.552Z,5.88
2022-12-07T06:12:43.579Z,6.57
2022-12-07T06:15:15.545Z,7.32
2022-12-07T06:17:48.594Z,6.97
2022-12-07T06:20:20.491Z,6.30
2022-12-07T06:22:52.470Z,6.72
2022-12-07T06:25:24.337Z,6.97
2022-12-07T06:27:56.413Z,6.93
2022-12-07T06:30:28.357Z,6.32
2022-12-07T06:33:00.432Z,6.35
2022-12-07T06:35:34.501Z,6.68
2022-12-07T06:38:06.489Z,7.15
2022-12-07T06:40:38.351Z,7.32
2022-12-07T06:43:10.341Z,6.38
2022-12-07T06:45:42.949Z,5.80
2022-12-07T06:48:15.220Z,5.75
2022-12-07T06:50:51.260Z,5.68
2022-12-07T06:53:26.474Z,5.55
2022-12-07T06:55:58.549Z,5.57
2022-12-07T06:58:30.981Z,6.15
2022-12-07T07:01:04.031Z,5.45
2022-12-07T07:03:35.982Z,5.55
2022-12-07T07:06:09.374Z,4.75
2022-12-07T07:08:41.882Z,5.40
2022-12-07T07:11:14.009Z,6.13
2022-12-07T07:13:46.113Z,8.30
2022-12-07T07:16:18.233Z,8.50
2022-12-07T07:18:50.136Z,8.07
2022-12-07T07:21:22.170Z,8.18
2022-12-07T07:23:54.081Z,7.45
2022-12-07T07:26:26.050Z,5.93
2022-12-07T07:28:57.901Z,7.10
2022-12-07T07:31:29.929Z,8.13
2022-12-07T07:34:02.160Z,9.18
2022-12-07T07:36:34.103Z,8.07
2022-12-07T07:39:06.272Z,6.80
2022-12-07T07:41:38.164Z,4.25
2022-12-07T07:44:11.110Z,4.60
2022-12-07T07:46:43.352Z,4.40
2022-12-07T07:49:15.268Z,4.70
2022-12-07T07:51:47.239Z,4.70
2022-12-07T07:54:19.360Z,3.95
2022-12-07T07:56:51.274Z,4.22
2022-12-07T07:59:23.614Z,4.40
2022-12-07T08:01:55.977Z,5.10
2022-12-07T08:04:28.075Z,4.45
2022-12-07T08:06:59.953Z,4.10
2022-12-07T08:09:31.819Z,4.32
2022-12-07T08:12:03.951Z,3.88
2022-12-07T08:14:36.052Z,4.93
2022-12-07T08:17:08.109Z,3.90
2022-12-07T08:19:40.261Z,4.60
2022-12-07T08:22:12.197Z,5.40
2022-12-07T08:24:44.141Z,6.18
2022-12-07T08:27:16.009Z,5.60
2022-12-07T08:29:47.942Z,6.03
2022-12-07T08:32:19.773Z,7.25
2022-12-07T08:34:53.653Z,6.35
2022-12-07T08:37:25.575Z,6.78
2022-12-07T08:39:57.513Z,7.10
2022-12-07T08:42:30.956Z,7.35
2022-12-07T08:45:02.920Z,6.03
2022-12-07T08:47:37.025Z,7.00
2022-12-07T08:50:11.468Z,7.10
2022-12-07T08:52:44.328Z,6.25
2022-12-07T08:55:16.303Z,5.43
2022-12-07T08:57:48.657Z,5.57
2022-12-07T09:00:20.834Z,6.00
2022-12-07T09:02:54.038Z,6.82
2022-12-07T09:05:26.775Z,7.03
2022-12-07T09:08:02.414Z,7.43
2022-12-07T09:10:34.451Z,7.05
2022-12-07T09:13:06.407Z,6.85
2022-12-07T09:15:38.372Z,11.27
2022-12-07T09:18:10.306Z,6.30
2022-12-07T09:20:42.290Z,7.20
2022-12-07T09:23:14.234Z,5.43
2022-12-07T09:25:46.181Z,5.78
2022-12-07T09:28:18.192Z,5.90
2022-12-07T09:31:22.219Z,6.82
2022-12-07T09:33:42.629Z,6.70
2022-12-07T09:36:14.685Z,5.50
2022-12-07T09:38:46.594Z,5.35
2022-12-07T09:41:19.201Z,6.93
2022-12-07T09:43:51.514Z,6.57
2022-12-07T09:46:23.650Z,6.15
2022-12-07T09:48:55.729Z,6.05
2022-12-07T09:51:27.741Z,6.70
2022-12-07T09:54:00.675Z,6.68
2022-12-07T09:56:32.816Z,7.07
2022-12-07T09:59:04.890Z,6.43
2022-12-07T10:01:39.080Z,6.60
2022-12-07T10:04:18.212Z,6.65
2022-12-07T10:06:52.090Z,7.05
2022-12-07T10:09:26.041Z,7.80
2022-12-07T10:12:09.721Z,8.07
2022-12-07T10:15:07.678Z,8.20
2022-12-07T10:17:48.178Z,8.65
2022-12-07T10:20:27.773Z,8.38
2022-12-07T10:23:04.962Z,9.38
2022-12-07T10:25:39.219Z,7.63
2022-12-07T10:28:18.364Z,7.95
2022-12-07T10:31:06.212Z,7.90
2022-12-07T10:33:56.585Z,7.40
2022-12-07T10:36:39.532Z,7.97
2022-12-07T10:39:18.944Z,7.72
2022-12-07T10:42:02.054Z,7.90
2022-12-07T10:44:44.105Z,8.50
2022-12-07T10:47:49.817Z,7.50
2022-12-07T10:50:37.159Z,9.50
2022-12-07T10:53:39.357Z,8.25
2022-12-07T10:56:32.615Z,10.25
2022-12-07T10:59:18.910Z,11.40
2022-12-07T11:02:05.905Z,11.90
2022-12-07T11:04:57.086Z,12.88
2022-12-07T11:07:57.063Z,13.27
2022-12-07T11:10:45.552Z,14.48
2022-12-07T11:13:35.829Z,15.02
2022-12-07T11:16:26.291Z,16.50
2022-12-07T11:19:33.958Z,15.88
2022-12-07T11:22:14.194Z,15.40
2022-12-07T11:25:25.625Z,15.70
2022-12-07T11:28:19.138Z,15.00
2022-12-07T11:30:51.054Z,16.92
2022-12-07T11:33:26.030Z,16.10
2022-12-07T11:36:04.530Z,15.85
2022-12-07T11:38:44.193Z,15.15
2022-12-07T11:41:23.886Z,13.90
2022-12-07T11:44:00.253Z,15.75
2022-12-07T11:46:55.329Z,15.20
2022-12-07T11:49:54.851Z,15.63
2022-12-07T11:52:56.675Z,15.27
2022-12-07T11:58:42.457Z,16.98
2022-12-07T12:01:43.864Z,16.88
2022-12-07T12:04:27.644Z,14.95
2022-12-07T12:09:58.594Z,15.68
2022-12-07T12:15:59.170Z,14.85
2022-12-07T12:19:00.732Z,14.35
2022-12-07T12:21:33.455Z,15.70
2022-12-07T12:24:16.764Z,12.68
2022-12-07T12:26:56.061Z,13.82
2022-12-07T12:29:42.700Z,12.70
2022-12-07T12:32:19.585Z,13.02
2022-12-07T12:34:54.621Z,11.75
2022-12-07T12:37:35.484Z,11.68
2022-12-07T12:40:48.450Z,11.50
2022-12-07T12:43:50.371Z,11.40
2022-12-07T12:46:31.383Z,10.60
2022-12-07T12:49:39.389Z,11.43
2022-12-07T12:52:32.841Z,10.77
2022-12-07T12:55:10.653Z,11.25
2022-12-07T12:57:42.553Z,12.02
2022-12-07T13:00:22.084Z,10.73
2022-12-07T13:02:56.538Z,11.00
2022-12-07T13:05:30.688Z,11.40
2022-12-07T13:08:05.297Z,11.52
2022-12-07T13:10:44.677Z,11.55
2022-12-07T13:13:18.913Z,11.75
2022-12-07T13:15:54.858Z,11.95
2022-12-07T13:18:29.749Z,11.77
2022-12-07T13:21:07.821Z,11.82
2022-12-07T13:23:46.214Z,11.88
2022-12-07T13:26:39.110Z,12.20
2022-12-07T13:29:10.913Z,13.02
2022-12-07T13:31:50.399Z,12.77
2022-12-07T13:34:39.736Z,13.82
2022-12-07T13:37:27.384Z,13.52
2022-12-07T13:40:16.078Z,13.25
2022-12-07T13:42:47.980Z,12.93
2022-12-07T13:45:51.607Z,12.50
2022-12-07T13:48:36.234Z,12.85
2022-12-07T13:51:19.683Z,13.43
2022-12-07T13:54:10.549Z,12.45
2022-12-07T13:56:43.595Z,11.67
2022-12-07T13:59:22.317Z,12.57
2022-12-07T14:01:55.267Z,12.52
2022-12-07T14:04:34.983Z,11.90
2022-12-07T14:07:26.292Z,12.35
2022-12-07T14:10:04.648Z,11.05
2022-12-07T14:12:38.048Z,11.45
2022-12-07T14:15:22.444Z,10.75
2022-12-07T14:17:56.324Z,12.05
2022-12-07T14:20:38.902Z,12.70
2022-12-07T14:23:27.314Z,12.52
2022-12-07T14:26:16.549Z,11.88
2022-12-07T14:28:48.934Z,11.88
2022-12-07T14:31:30.493Z,11.68
2022-12-07T14:34:02.989Z,11.63
2022-12-07T14:36:34.963Z,11.80
2022-12-07T14:39:11.723Z,11.68
2022-12-07T14:41:51.634Z,12.23
2022-12-07T14:44:28.209Z,11.10
2022-12-07T14:49:57.300Z,12.02
2022-12-07T14:55:31.553Z,17.63
2022-12-07T14:58:03.489Z,18.75
2022-12-07T15:00:35.415Z,15.65
2022-12-07T15:03:07.525Z,12.70
2022-12-07T15:05:40.132Z,12.32
2022-12-07T15:08:13.656Z,12.10
2022-12-07T15:10:45.878Z,11.20
2022-12-07T15:13:36.456Z,11.95
2022-12-07T15:16:19.914Z,13.00
2022-12-07T15:19:26.283Z,12.68
2022-12-07T15:21:45.013Z,14.07
2022-12-07T15:24:17.201Z,16.88
2022-12-07T15:26:49.342Z,17.30
2022-12-07T15:29:23.686Z,13.00
2022-12-07T15:31:57.976Z,12.70
2022-12-07T15:34:38.053Z,15.30
2022-12-07T15:42:15.886Z,14.10
2022-12-07T15:45:06.844Z,13.57
2022-12-07T15:48:25.712Z,17.67
2022-12-07T15:50:34.269Z,18.38
2022-12-07T15:53:06.117Z,19.42
2022-12-07T15:55:41.079Z,20.20
2022-12-07T15:58:12.937Z,16.73
2022-12-07T16:00:44.783Z,17.13
2022-12-07T16:03:16.735Z,18.95
2022-12-07T16:05:54.827Z,20.73
2022-12-07T16:08:30.515Z,19.90
2022-12-07T16:11:08.422Z,16.80
2022-12-07T16:13:40.421Z,17.63
2022-12-07T16:16:15.499Z,15.63
2022-12-07T16:18:47.990Z,15.45
2022-12-07T16:21:24.889Z,16.15
2022-12-07T16:23:59.594Z,16.13
2022-12-07T16:26:31.815Z,16.95
2022-12-07T16:29:04.009Z,17.25
2022-12-07T16:31:39.194Z,17.60
2022-12-07T16:34:11.633Z,16.70
2022-12-07T16:39:35.586Z,19.70
2022-12-07T16:42:07.766Z,21.50
2022-12-07T16:44:40.095Z,25.33
2022-12-07T16:47:12.178Z,26.38
2022-12-07T16:49:44.673Z,35.67
2022-12-07T16:52:20.965Z,28.27
2022-12-07T16:54:53.436Z,41.42
2022-12-07T16:57:26.901Z,41.92
2022-12-07T16:59:58.869Z,57.17
2022-12-07T17:02:30.751Z,102.30
2022-12-07T17:05:02.952Z,90.78
2022-12-07T17:07:35.008Z,87.25
2022-12-07T17:10:07.630Z,85.28
2022-12-07T17:12:39.561Z,37.72
2022-12-07T17:15:17.481Z,21.88
2022-12-07T17:18:00.010Z,29.23
2022-12-07T17:20:31.848Z,27.42
2022-12-07T17:23:03.719Z,27.52
2022-12-07T17:25:35.665Z,26.58
2022-12-07T17:28:07.773Z,30.13
2022-12-07T17:30:40.538Z,25.15
2022-12-07T17:33:13.747Z,31.90
2022-12-07T17:35:46.242Z,32.40
2022-12-07T17:38:18.087Z,35.70
2022-12-07T17:40:50.034Z,36.38
2022-12-07T17:43:21.944Z,29.00
2022-12-07T17:45:53.928Z,33.15
2022-12-07T17:48:25.956Z,30.58
2022-12-07T17:51:21.963Z,27.17
2022-12-07T17:53:55.208Z,24.35
2022-12-07T17:56:28.857Z,25.35
2022-12-07T17:59:01.385Z,28.23
2022-12-07T18:01:35.008Z,26.38
2022-12-07T18:04:07.702Z,32.28
2022-12-07T18:06:40.483Z,42.22
2022-12-07T18:09:18.347Z,30.85
2022-12-07T18:11:50.580Z,31.15
2022-12-07T18:14:22.795Z,21.20
2022-12-07T18:16:54.786Z,25.35
2022-12-07T18:19:26.821Z,26.58
2022-12-07T18:21:58.920Z,21.38
2022-12-07T18:24:36.716Z,18.52
2022-12-07T18:27:09.651Z,23.05
2022-12-07T18:29:41.646Z,23.52
2022-12-07T18:32:13.651Z,26.60
2022-12-07T18:34:46.173Z,22.88
2022-12-07T18:37:18.209Z,20.05
2022-12-07T18:39:52.962Z,18.58
2022-12-07T18:42:25.196Z,19.25
2022-12-07T18:44:59.539Z,18.40
2022-12-07T18:47:31.423Z,16.92
2022-12-07T18:50:04.013Z,16.48
2022-12-07T18:52:36.030Z,19.42
2022-12-07T18:55:08.714Z,18.17
2022-12-07T18:57:40.678Z,19.27
2022-12-07T19:00:13.321Z,20.35
2022-12-07T19:02:45.308Z,20.50
2022-12-07T19:05:18.221Z,19.52
2022-12-07T19:07:51.832Z,21.25
2022-12-07T19:10:23.820Z,20.58
2022-12-07T19:12:56.007Z,22.33
2022-12-07T19:15:28.045Z,21.30
2022-12-07T19:18:00.091Z,23.13
2022-12-07T19:20:32.189Z,21.75
2022-12-07T19:23:04.475Z,28.17
2022-12-07T19:25:36.861Z,25.50
2022-12-07T19:28:08.927Z,22.70
2022-12-07T19:30:40.884Z,20.92
2022-12-07T19:33:12.852Z,22.67
2022-12-07T19:35:44.853Z,22.92
2022-12-07T19:38:16.738Z,20.63
2022-12-07T19:40:48.760Z,19.50
2022-12-07T19:43:21.724Z,20.20
2022-12-07T19:45:53.828Z,17.35
2022-12-07T19:48:25.853Z,13.75
2022-12-07T19:51:05.606Z,13.00
2022-12-07T19:53:37.556Z,13.13
2022-12-07T19:56:16.313Z,13.40
2022-12-07T19:58:48.958Z,14.45
2022-12-07T20:01:22.892Z,13.60
2022-12-07T20:03:55.164Z,12.18
2022-12-07T20:06:27.368Z,12.00
2022-12-07T20:08:59.333Z,12.02
2022-12-07T20:11:51.331Z,11.27
2022-12-07T20:14:24.136Z,11.70
2022-12-07T20:16:56.266Z,12.65
2022-12-07T20:19:28.588Z,11.63
2022-12-07T20:22:00.569Z,11.02
2022-12-07T20:24:34.602Z,11.25
2022-12-07T20:27:06.901Z,11.35
2022-12-07T20:29:38.919Z,12.45
2022-12-07T20:32:12.393Z,12.57
2022-12-07T20:34:44.971Z,11.23
2022-12-07T20:37:17.102Z,11.32
2022-12-07T20:39:48.928Z,11.18
2022-12-07T20:42:39.402Z,12.18
2022-12-07T20:45:12.280Z,10.85
2022-12-07T20:47:44.274Z,11.85
2022-12-07T20:50:16.204Z,12.20
2022-12-07T20:52:48.211Z,11.25
2022-12-07T20:55:20.157Z,10.95
2022-12-07T20:57:52.004Z,10.75
2022-12-07T21:00:26.311Z,11.07
2022-12-07T21:02:58.344Z,11.65
2022-12-07T21:05:30.866Z,10.13
2022-12-07T21:08:03.237Z,10.00
2022-12-07T21:10:37.886Z,9.57
2022-12-07T21:13:09.992Z,9.82
2022-12-07T21:15:42.057Z,8.98
2022-12-07T21:18:14.230Z,8.98
2022-12-07T21:20:46.025Z,9.70
2022-12-07T21:23:17.992Z,9.82
2022-12-07T21:25:50.197Z,9.00
2022-12-07T21:28:22.088Z,8.55
2022-12-07T21:31:15.554Z,9.35
2022-12-07T21:33:47.858Z,9.32
2022-12-07T21:36:25.727Z,10.02
2022-12-07T21:38:57.888Z,9.60
2022-12-07T21:41:32.185Z,9.45
2022-12-07T21:44:07.492Z,9.02
2022-12-07T21:46:40.386Z,8.85
2022-12-07T21:49:14.323Z,10.00
2022-12-07T21:51:46.219Z,9.68
2022-12-07T21:54:22.796Z,10.93
2022-12-07T21:56:57.557Z,9.10
2022-12-07T21:59:29.614Z,9.35
2022-12-07T22:02:01.591Z,8.52
2022-12-07T22:04:33.531Z,9.05
2022-12-07T22:07:05.436Z,8.40
2022-12-07T22:09:37.490Z,8.50
2022-12-07T22:12:09.589Z,7.88
2022-12-07T22:15:00.445Z,8.35
2022-12-07T22:17:33.364Z,7.72
2022-12-07T22:20:05.914Z,7.28
2022-12-07T22:22:37.805Z,8.30
2022-12-07T22:25:10.551Z,8.00
2022-12-07T22:27:43.164Z,8.77
2022-12-07T22:30:15.142Z,7.65
2022-12-07T22:32:50.327Z,6.97
2022-12-07T22:35:23.132Z,6.60
2022-12-07T22:37:55.057Z,7.53
2022-12-07T22:40:26.968Z,6.68
2022-12-07T22:43:01.856Z,6.18
2022-12-07T22:45:34.454Z,6.38
2022-12-07T22:48:07.500Z,7.10
2022-12-07T22:50:39.332Z,5.60
2022-12-07T22:53:11.272Z,6.18
2022-12-07T22:55:43.259Z,6.90
2022-12-07T22:58:15.912Z,6.80
2022-12-07T23:00:57.497Z,6.20
2022-12-07T23:03:29.497Z,6.10
2022-12-07T23:06:07.535Z,6.32
2022-12-07T23:08:39.431Z,6.60
2022-12-07T23:11:38.246Z,5.80
2022-12-07T23:14:14.151Z,5.88
2022-12-07T23:16:46.393Z,6.13
2022-12-07T23:19:18.706Z,5.95
2022-12-07T23:21:50.650Z,5.78
2022-12-07T23:24:22.692Z,5.82
2022-12-07T23:26:54.788Z,5.57
2022-12-07T23:29:27.566Z,6.18
2022-12-07T23:31:59.510Z,5.93
2022-12-07T23:34:31.414Z,6.15
2022-12-07T23:37:03.277Z,5.32
2022-12-07T23:39:35.525Z,5.45
2022-12-07T23:42:07.339Z,5.13
2022-12-07T23:44:39.244Z,5.60
2022-12-07T23:47:11.239Z,5.45
2022-12-07T23:49:43.162Z,5.57
2022-12-07T23:52:15.042Z,5.60
2022-12-07T23:54:46.959Z,5.35
2022-12-07T23:57:18.872Z,5.18
2022-12-07T23:59:51.901Z,4.95
